This is the latest recevied weather packets stored in our database for station/object OH2EGI-2. If no packets are shown the sender has not sent any weather packets the latest 10 day(s).
| Time | Temp. | Humidity | Pressure | Rain* | Wind** | Luminosity | Snow |
|---|---|---|---|---|---|---|---|
| 1777908699 | 13.33° C | 68% | 993.2 hPa | 0 mm | - | - | - |
| 1777908399 | 13.33° C | 66% | 993.2 hPa | 0 mm | - | - | - |
| 1777908099 | 13.89° C | 65% | 993.3 hPa | 0 mm | - | - | - |
| 1777907799 | 14.44° C | 64% | 993.2 hPa | 0 mm | - | - | - |
| 1777907499 | 15.56° C | 63% | 993.3 hPa | 0 mm | - | - | - |
| 1777907199 | 15° C | 65% | 993.2 hPa | 0 mm | - | - | - |
| 1777906899 | 15° C | 64% | 993.2 hPa | 0 mm | - | - | - |
| 1777906599 | 16.11° C | 64% | 993.2 hPa | 0 mm | - | - | - |
| 1777906299 | 15.56° C | 67% | 993.2 hPa | 0 mm | - | - | - |
| 1777905999 | 14.44° C | 67% | 993.2 hPa | 0 mm | - | - | - |
| 1777905699 | 15° C | 67% | 993.3 hPa | 0 mm | - | - | - |
| 1777905399 | 15.56° C | 67% | 993.3 hPa | 0 mm | - | - | - |
| 1777905099 | 15° C | 69% | 993.3 hPa | 0 mm | - | - | - |
| 1777904799 | 14.44° C | 70% | 993.3 hPa | 0 mm | - | - | - |
| 1777904499 | 13.89° C | 72% | 993.3 hPa | 0 mm | - | - | - |
| 1777904199 | 13.33° C | 72% | 993.4 hPa | 0 mm | - | - | - |
| 1777903899 | 13.33° C | 73% | 993.3 hPa | 0 mm | - | - | - |
| 1777903599 | 13.33° C | 73% | 993.4 hPa | 0 mm | - | - | - |
| 1777903299 | 13.33° C | 73% | 993.4 hPa | 0 mm | - | - | - |
| 1777902999 | 13.33° C | 73% | 993.4 hPa | 0 mm | - | - | - |
| 1777902699 | 13.33° C | 73% | 993.5 hPa | 0 mm | - | - | - |
| 1777902399 | 13.33° C | 73% | 993.4 hPa | 0 mm | - | - | - |
| 1777902099 | 12.78° C | 74% | 993.4 hPa | 0 mm | - | - | - |
| 1777901799 | 12.78° C | 74% | 993.4 hPa | 0 mm | - | - | - |
| 1777901500 | 12.78° C | 74% | 993.6 hPa | 0 mm | - | - | - |
* Rain latest hour (hover to see other rain measurements)
** Current wind speed in m/s (hover to see current wind gust speed)